createdAt,value
2023-08-16T00:02:17.624Z,6.50
2023-08-16T00:12:23.320Z,6.60
2023-08-16T00:22:29.065Z,6.40
2023-08-16T00:32:34.954Z,7.40
2023-08-16T00:42:40.947Z,6.50
2023-08-16T00:52:46.670Z,6.30
2023-08-16T01:02:52.617Z,6.40
2023-08-16T01:13:07.689Z,6.00
2023-08-16T01:23:23.392Z,6.60
2023-08-16T01:33:29.019Z,5.80
2023-08-16T01:43:36.151Z,5.90
2023-08-16T01:53:42.283Z,6.80
2023-08-16T02:03:48.183Z,5.90
2023-08-16T02:13:53.900Z,6.30
2023-08-16T02:23:59.767Z,5.40
2023-08-16T02:34:05.984Z,5.50
2023-08-16T02:44:11.748Z,6.00
2023-08-16T02:54:17.416Z,5.90
2023-08-16T03:04:23.149Z,5.70
2023-08-16T03:14:29.272Z,7.40
2023-08-16T03:24:34.969Z,6.40
2023-08-16T03:34:40.632Z,6.60
2023-08-16T03:44:46.530Z,6.90
2023-08-16T03:54:53.702Z,7.40
2023-08-16T04:05:09.036Z,7.20
2023-08-16T04:15:15.215Z,7.30
2023-08-16T04:25:23.135Z,7.30
2023-08-16T04:45:33.354Z,7.40
2023-08-16T04:55:39.549Z,7.10
2023-08-16T05:05:45.259Z,6.30
2023-08-16T05:15:51.010Z,5.80
2023-08-16T05:25:56.715Z,5.40
2023-08-16T05:36:02.551Z,4.90
2023-08-16T05:46:08.391Z,4.20
2023-08-16T05:56:14.267Z,6.30
2023-08-16T06:06:20.254Z,4.60
2023-08-16T06:16:26.182Z,5.00
2023-08-16T06:26:32.090Z,4.60
2023-08-16T06:36:37.993Z,3.90
2023-08-16T06:46:44.058Z,4.30
2023-08-16T06:56:50.564Z,4.90
2023-08-16T07:06:56.462Z,5.60
2023-08-16T07:17:03.358Z,6.00
2023-08-16T07:27:09.361Z,7.90
2023-08-16T07:37:15.578Z,10.40
2023-08-16T07:47:21.451Z,14.20
2023-08-16T07:57:27.339Z,17.20
2023-08-16T08:07:33.052Z,12.70
2023-08-16T08:17:38.802Z,6.50
2023-08-16T08:27:44.720Z,3.80
2023-08-16T08:37:50.809Z,2.90
2023-08-16T08:47:58.601Z,3.60
2023-08-16T08:58:05.838Z,3.50
2023-08-16T09:08:14.618Z,3.60
2023-08-16T09:18:24.981Z,3.70
2023-08-16T09:28:34.290Z,3.50
2023-08-16T09:38:45.856Z,3.90
2023-08-16T09:59:02.627Z,3.80
2023-08-16T10:09:11.287Z,4.00
2023-08-16T10:19:24.181Z,4.50
2023-08-16T10:29:34.802Z,5.30
2023-08-16T10:39:40.793Z,4.30
2023-08-16T10:49:46.764Z,4.60
2023-08-16T11:00:02.992Z,4.20
2023-08-16T11:10:09.631Z,4.20
2023-08-16T11:20:20.085Z,5.20
2023-08-16T11:30:26.336Z,7.00
2023-08-16T11:40:32.119Z,4.40
2023-08-16T11:50:37.900Z,4.30
2023-08-16T12:00:46.262Z,5.20
2023-08-16T12:10:58.116Z,4.70
2023-08-16T12:21:04.086Z,5.30
2023-08-16T12:41:14.389Z,4.50
2023-08-16T13:01:24.631Z,4.30
2023-08-16T13:11:34.442Z,5.00
2023-08-16T13:21:53.276Z,5.00
2023-08-16T13:32:03.241Z,4.90
2023-08-16T13:42:17.148Z,4.80
2023-08-16T13:52:23.981Z,4.60
2023-08-16T14:02:30.345Z,4.30
2023-08-16T14:12:36.679Z,5.40
2023-08-16T14:22:42.480Z,5.20
2023-08-16T14:32:48.380Z,5.00
2023-08-16T14:42:54.269Z,5.40
2023-08-16T15:03:05.527Z,4.10
2023-08-16T15:13:12.538Z,3.90
2023-08-16T15:23:19.982Z,4.10
2023-08-16T15:33:25.719Z,4.60
2023-08-16T15:43:31.833Z,4.10
2023-08-16T15:53:37.663Z,4.70
2023-08-16T16:03:43.516Z,4.10
2023-08-16T16:13:49.307Z,3.90
2023-08-16T16:23:55.067Z,3.40
2023-08-16T16:34:00.914Z,3.30
2023-08-16T16:44:08.441Z,3.30
2023-08-16T16:54:14.177Z,3.20
2023-08-16T17:04:20.030Z,3.40
2023-08-16T17:14:26.177Z,3.60
2023-08-16T17:24:32.180Z,3.70
2023-08-16T17:34:37.907Z,3.50
2023-08-16T17:44:43.755Z,4.40
2023-08-16T17:54:49.453Z,4.50
2023-08-16T18:04:55.371Z,5.20
2023-08-16T18:15:02.056Z,5.20
2023-08-16T18:25:08.896Z,5.00
2023-08-16T18:35:14.721Z,5.20
2023-08-16T18:45:20.641Z,16.00
2023-08-16T18:55:28.724Z,11.90
2023-08-16T19:05:42.642Z,6.60
2023-08-16T19:15:48.722Z,10.80
2023-08-16T19:25:57.989Z,7.10
2023-08-16T19:36:06.465Z,6.40
2023-08-16T19:46:12.439Z,6.90
2023-08-16T19:56:18.295Z,6.20
2023-08-16T20:06:25.036Z,8.00
2023-08-16T20:16:31.347Z,7.80
2023-08-16T20:26:37.236Z,15.10
2023-08-16T20:36:43.266Z,14.80
2023-08-16T20:46:51.182Z,9.60
2023-08-16T20:56:57.765Z,9.60
2023-08-16T21:07:03.644Z,9.30
2023-08-16T21:17:09.738Z,9.90
2023-08-16T21:27:16.736Z,8.90
2023-08-16T21:37:22.410Z,9.50
2023-08-16T21:47:28.530Z,9.20
2023-08-16T21:57:36.417Z,9.20
2023-08-16T22:07:43.237Z,10.00
2023-08-16T22:17:48.989Z,9.30
2023-08-16T22:27:54.819Z,10.20
2023-08-16T22:38:00.602Z,9.10
2023-08-16T22:48:07.714Z,8.50
2023-08-16T22:58:13.434Z,9.80
2023-08-16T23:08:19.323Z,8.70
2023-08-16T23:18:25.153Z,8.50
2023-08-16T23:28:30.979Z,8.50
2023-08-16T23:38:36.833Z,8.30
2023-08-16T23:48:42.535Z,9.00
2023-08-16T23:58:48.376Z,7.90
